Time,TemperatureF,DewpointF,PressureIn,WindDirection,WindDirectionDegrees,WindSpeedMPH,WindSpeedGustMPH,Humidity,HourlyPrecipIn,Conditions,Clouds,dailyrainin,SoftwareType,DateUTC
2014-04-20 00:03:00,-999.0,-99.9,-100.00,East,80,2.0,5.0,-999,-99.99,,,-99.99,,2014-04-20 04:03:00,
2014-04-20 00:23:00,44.0,39.0,-100.00,East,100,4.0,9.0,84,-99.99,,,-99.99,,2014-04-20 04:23:00,
2014-04-20 00:54:00,44.0,38.0,-100.00,ENE,70,3.0,6.0,80,-99.99,,,-99.99,,2014-04-20 04:54:00,
2014-04-20 01:23:00,44.0,38.0,-100.00,ENE,60,3.0,5.0,81,-99.99,,,-99.99,,2014-04-20 05:23:00,
2014-04-20 01:53:00,44.0,39.0,-100.00,NE,55,6.0,9.0,81,-99.99,,,-99.99,,2014-04-20 05:53:00,
2014-04-20 02:22:00,44.0,39.0,-100.00,ENE,65,5.0,7.0,81,-99.99,,,-99.99,,2014-04-20 06:22:00,
2014-04-20 02:52:00,44.0,39.0,-100.00,East,80,5.0,14.0,82,-99.99,,,-99.99,,2014-04-20 06:52:00,
2014-04-20 03:52:00,44.0,39.0,-100.00,East,90,6.0,10.0,85,-99.99,,,-99.99,,2014-04-20 07:52:00,
2014-04-20 04:22:00,43.0,39.0,-100.00,ESE,105,3.0,7.0,87,-99.99,,,-99.99,,2014-04-20 08:22:00,
2014-04-20 04:52:00,42.0,39.0,-100.00,East,90,2.0,6.0,88,-99.99,,,-99.99,,2014-04-20 08:52:00,
2014-04-20 05:22:00,42.0,39.0,-100.00,ESE,115,2.0,4.0,90,-99.99,,,-99.99,,2014-04-20 09:22:00,
2014-04-20 05:53:00,41.0,38.0,-100.00,East,80,0.0,1.0,90,-99.99,,,-99.99,,2014-04-20 09:53:00,
2014-04-20 06:23:00,41.0,38.0,-100.00,NE,50,1.0,3.0,91,-99.99,,,-99.99,,2014-04-20 10:23:00,
2014-04-20 06:53:00,40.0,38.0,-100.00,ENE,70,0.0,1.0,92,-99.99,,,-99.99,,2014-04-20 10:53:00,
2014-04-20 07:22:00,40.0,39.0,-100.00,SE,130,0.0,1.0,94,-99.99,,,-99.99,,2014-04-20 11:22:00,
2014-04-20 07:52:00,41.0,40.0,-100.00,SSE,155,0.0,1.0,95,-99.99,,,-99.99,,2014-04-20 11:52:00,
2014-04-20 08:22:00,44.0,43.0,-100.00,ESE,115,1.0,3.0,96,-99.99,,,-99.99,,2014-04-20 12:22:00,
2014-04-20 08:52:00,46.0,45.0,-100.00,East,80,2.0,5.0,96,-99.99,,,-99.99,,2014-04-20 12:52:00,
2014-04-20 09:22:00,48.0,46.0,-100.00,ESE,115,2.0,5.0,94,-99.99,,,-99.99,,2014-04-20 13:22:00,
2014-04-20 09:52:00,50.0,47.0,-100.00,ENE,60,1.0,4.0,89,-99.99,,,-99.99,,2014-04-20 13:52:00,
2014-04-20 10:22:00,52.0,46.0,-100.00,SW,215,2.0,5.0,79,-99.99,,,-99.99,,2014-04-20 14:22:00,
2014-04-20 10:52:00,56.0,43.0,-100.00,South,175,5.0,7.0,61,-99.99,,,-99.99,,2014-04-20 14:52:00,
2014-04-20 11:22:00,59.0,42.0,-100.00,South,190,4.0,7.0,51,-99.99,,,-99.99,,2014-04-20 15:22:00,
2014-04-20 11:53:00,63.0,41.0,-100.00,SE,135,3.0,6.0,44,-99.99,,,-99.99,,2014-04-20 15:53:00,
2014-04-20 12:23:00,65.0,38.0,-100.00,SSE,150,4.0,8.0,37,-99.99,,,-99.99,,2014-04-20 16:23:00,
2014-04-20 12:53:00,66.0,35.0,-100.00,SSW,195,6.0,9.0,31,-99.99,,,-99.99,,2014-04-20 16:53:00,
2014-04-20 13:22:00,68.0,35.0,-100.00,WSW,240,6.0,11.0,29,-99.99,,,-99.99,,2014-04-20 17:22:00,